createdAt,value
2018-12-02T00:00:54.637Z,10.20
2018-12-02T00:05:47.889Z,10.20
2018-12-02T00:10:41.201Z,10.30
2018-12-02T00:15:36.877Z,10.30
2018-12-02T00:20:30.219Z,10.30
2018-12-02T00:25:24.307Z,10.30
2018-12-02T00:30:20.211Z,10.30
2018-12-02T00:35:14.923Z,10.30
2018-12-02T00:40:10.386Z,10.40
2018-12-02T00:45:04.562Z,10.40
2018-12-02T00:49:57.821Z,10.50
2018-12-02T00:54:51.092Z,10.50
2018-12-02T00:59:44.395Z,10.50
2018-12-02T01:04:39.235Z,10.50
2018-12-02T01:09:32.552Z,10.40
2018-12-02T01:14:25.834Z,10.40
2018-12-02T01:19:19.094Z,10.50
2018-12-02T01:24:12.379Z,10.40
2018-12-02T01:29:05.721Z,10.40
2018-12-02T01:33:58.976Z,10.40
2018-12-02T01:38:52.265Z,10.40
2018-12-02T01:43:45.517Z,10.50
2018-12-02T01:48:39.677Z,10.50
2018-12-02T01:53:32.926Z,10.50
2018-12-02T01:58:26.227Z,10.60
2018-12-02T02:03:19.588Z,10.60
2018-12-02T02:08:12.821Z,10.60
2018-12-02T02:13:06.119Z,10.50
2018-12-02T02:17:59.474Z,10.60
2018-12-02T02:22:53.027Z,10.60
2018-12-02T02:27:57.981Z,10.40
2018-12-02T02:32:51.297Z,10.50
2018-12-02T02:37:45.774Z,10.50
2018-12-02T02:42:39.064Z,10.50
2018-12-02T02:47:32.312Z,10.40
2018-12-02T02:52:26.676Z,10.20
2018-12-02T02:57:19.981Z,10.00
2018-12-02T03:02:13.268Z,9.80
2018-12-02T03:07:06.548Z,9.60
2018-12-02T03:11:59.818Z,9.40
2018-12-02T03:16:53.083Z,9.40
2018-12-02T03:21:46.883Z,9.40
2018-12-02T03:26:40.145Z,9.30
2018-12-02T03:31:33.426Z,9.30
2018-12-02T03:36:26.679Z,9.30
2018-12-02T03:41:20.029Z,9.20
2018-12-02T03:46:13.270Z,9.20
2018-12-02T03:51:06.618Z,9.20
2018-12-02T03:55:59.902Z,9.10
2018-12-02T04:00:53.194Z,9.10
2018-12-02T04:05:46.505Z,9.10
2018-12-02T04:10:39.781Z,9.20
2018-12-02T04:15:33.148Z,9.20
2018-12-02T04:20:26.397Z,9.20
2018-12-02T04:25:22.353Z,9.20
2018-12-02T04:30:18.771Z,9.10
2018-12-02T04:35:14.590Z,9.00
2018-12-02T04:40:13.901Z,8.90
2018-12-02T04:45:14.306Z,8.90
2018-12-02T04:50:12.348Z,8.80
2018-12-02T04:55:06.802Z,8.70
2018-12-02T05:00:00.065Z,8.80
2018-12-02T05:04:53.310Z,8.70
2018-12-02T05:09:46.660Z,8.80
2018-12-02T05:14:39.938Z,8.70
2018-12-02T05:19:33.180Z,8.70
2018-12-02T05:24:26.480Z,8.80
2018-12-02T05:29:19.800Z,8.80
2018-12-02T05:34:13.030Z,8.80
2018-12-02T05:39:09.170Z,8.80
2018-12-02T05:44:02.426Z,8.90
2018-12-02T05:48:55.707Z,8.90
2018-12-02T05:53:48.970Z,8.90
2018-12-02T05:58:42.257Z,9.00
2018-12-02T06:03:35.564Z,8.90
2018-12-02T06:08:28.799Z,8.90
2018-12-02T06:13:22.036Z,9.00
2018-12-02T06:18:15.333Z,9.00
2018-12-02T06:23:08.622Z,9.10
2018-12-02T06:28:01.881Z,7.00
2018-12-02T06:33:00.864Z,9.10
2018-12-02T06:37:55.640Z,9.20
2018-12-02T06:42:50.346Z,9.30
2018-12-02T06:47:43.661Z,9.40
2018-12-02T06:52:36.943Z,9.40
2018-12-02T06:57:38.893Z,9.50
2018-12-02T07:04:43.119Z,9.60
2018-12-02T07:09:36.410Z,9.60
2018-12-02T07:14:29.720Z,9.70
2018-12-02T07:19:34.666Z,9.60
2018-12-02T07:24:31.962Z,9.70
2018-12-02T07:29:25.224Z,9.70
2018-12-02T07:34:18.433Z,9.80
2018-12-02T07:41:21.297Z,9.90
2018-12-02T07:46:14.608Z,10.00
2018-12-02T07:51:07.896Z,10.00
2018-12-02T07:56:01.220Z,10.10
2018-12-02T08:00:54.499Z,10.10
2018-12-02T08:05:47.800Z,10.20
2018-12-02T08:10:41.103Z,10.20
2018-12-02T08:15:34.466Z,10.20
2018-12-02T08:20:27.818Z,10.20
2018-12-02T08:25:21.131Z,10.30
2018-12-02T08:30:24.983Z,10.40
2018-12-02T08:35:19.924Z,10.40
2018-12-02T08:40:13.278Z,10.40
2018-12-02T08:45:14.403Z,10.50
2018-12-02T08:50:14.403Z,10.60
2018-12-02T08:55:09.854Z,10.70
2018-12-02T09:00:03.972Z,10.80
2018-12-02T09:04:57.249Z,10.80
2018-12-02T09:09:50.523Z,11.00
2018-12-02T09:14:43.789Z,11.10
2018-12-02T09:19:37.125Z,11.20
2018-12-02T09:24:30.389Z,11.30
2018-12-02T09:29:23.693Z,11.50
2018-12-02T09:34:17.052Z,11.50
2018-12-02T09:39:10.385Z,11.70
2018-12-02T09:44:03.759Z,11.80
2018-12-02T09:48:57.035Z,11.90
2018-12-02T09:53:50.295Z,12.00
2018-12-02T09:58:43.576Z,12.10
2018-12-02T10:03:36.842Z,12.20
2018-12-02T10:08:30.152Z,12.20
2018-12-02T10:13:23.933Z,12.20
2018-12-02T10:18:17.236Z,12.20
2018-12-02T10:23:10.567Z,12.30
2018-12-02T10:28:04.139Z,12.40
2018-12-02T10:32:58.043Z,12.50
2018-12-02T10:37:52.444Z,12.60
2018-12-02T10:42:46.229Z,12.70
2018-12-02T10:47:39.601Z,12.70
2018-12-02T10:52:32.967Z,12.70
2018-12-02T10:57:26.201Z,12.90
2018-12-02T11:02:19.480Z,12.90
2018-12-02T11:07:12.771Z,12.90
2018-12-02T11:12:06.168Z,13.10
2018-12-02T11:16:59.451Z,13.30
2018-12-02T11:21:52.767Z,13.30
2018-12-02T11:26:46.087Z,13.30
2018-12-02T11:31:39.410Z,13.40
2018-12-02T11:36:34.177Z,13.70
2018-12-02T11:41:28.744Z,13.90
2018-12-02T11:46:23.680Z,14.10
2018-12-02T11:51:17.037Z,14.20
2018-12-02T11:56:12.675Z,14.50
2018-12-02T12:01:07.482Z,14.70
2018-12-02T12:06:00.849Z,15.10
2018-12-02T12:10:54.278Z,15.20
2018-12-02T12:15:47.597Z,15.10
2018-12-02T12:20:42.279Z,15.20
2018-12-02T12:25:35.641Z,15.20
2018-12-02T12:30:30.759Z,15.20
2018-12-02T12:35:24.742Z,15.10
2018-12-02T12:40:34.797Z,15.10
2018-12-02T12:45:28.153Z,14.90
2018-12-02T12:50:21.476Z,15.00
2018-12-02T12:55:17.289Z,15.10
2018-12-02T13:00:15.217Z,15.10
2018-12-02T13:05:11.123Z,15.20
2018-12-02T13:10:07.208Z,15.30
2018-12-02T13:15:00.425Z,15.40
2018-12-02T13:19:53.743Z,15.10
2018-12-02T13:24:47.070Z,15.20
2018-12-02T13:29:40.355Z,15.30
2018-12-02T13:34:33.634Z,15.40
2018-12-02T13:39:26.942Z,15.50
2018-12-02T13:44:20.249Z,15.50
2018-12-02T13:49:13.722Z,15.50
2018-12-02T13:54:13.084Z,15.60
2018-12-02T13:59:07.331Z,15.70
2018-12-02T14:04:00.582Z,15.40
2018-12-02T14:08:54.118Z,15.40
2018-12-02T14:13:47.431Z,15.50
2018-12-02T14:18:42.946Z,15.30
2018-12-02T14:23:38.469Z,15.20
2018-12-02T14:28:52.984Z,15.10
2018-12-02T14:33:46.236Z,15.10
2018-12-02T14:38:40.373Z,15.10
2018-12-02T14:43:32.887Z,15.10
2018-12-02T14:48:26.162Z,14.90
2018-12-02T14:53:19.539Z,14.70
2018-12-02T14:58:12.824Z,14.70
2018-12-02T15:03:06.467Z,14.70
2018-12-02T15:08:00.760Z,14.80
2018-12-02T15:12:54.085Z,14.80
2018-12-02T15:17:48.323Z,14.60
2018-12-02T15:22:41.657Z,14.50
2018-12-02T15:27:34.985Z,14.50
2018-12-02T15:32:28.309Z,14.50
2018-12-02T15:37:21.636Z,14.60
2018-12-02T15:42:14.914Z,14.50
2018-12-02T15:47:08.235Z,14.40
2018-12-02T15:52:01.852Z,14.30
2018-12-02T15:56:55.218Z,14.20
2018-12-02T16:01:48.532Z,14.20
2018-12-02T16:06:41.832Z,14.10
2018-12-02T16:11:35.161Z,14.20
2018-12-02T16:16:28.443Z,14.20
2018-12-02T16:21:21.760Z,14.10
2018-12-02T16:26:15.045Z,14.10
2018-12-02T16:31:08.302Z,14.10
2018-12-02T16:36:01.636Z,14.00
2018-12-02T16:40:55.155Z,14.00
2018-12-02T16:45:48.452Z,13.90
2018-12-02T16:50:45.041Z,14.00
2018-12-02T16:55:43.261Z,13.90
2018-12-02T17:00:49.821Z,13.80
2018-12-02T17:05:43.139Z,13.80
2018-12-02T17:10:36.412Z,13.80
2018-12-02T17:15:29.704Z,13.90
2018-12-02T17:20:23.020Z,14.00
2018-12-02T17:25:16.322Z,14.10
2018-12-02T17:30:36.396Z,14.10
2018-12-02T17:35:29.650Z,14.00
2018-12-02T17:40:23.726Z,14.20
2018-12-02T17:45:17.034Z,14.20
2018-12-02T17:50:15.463Z,14.30
2018-12-02T17:55:08.872Z,14.40
2018-12-02T18:00:02.241Z,14.40
2018-12-02T18:04:55.531Z,14.50
2018-12-02T18:09:48.840Z,14.50
2018-12-02T18:14:42.131Z,14.30
2018-12-02T18:19:35.410Z,14.20
2018-12-02T18:24:28.715Z,14.30
2018-12-02T18:29:22.021Z,14.30
2018-12-02T18:34:15.333Z,14.40
2018-12-02T18:39:12.835Z,14.30
2018-12-02T18:44:13.425Z,14.30
2018-12-02T18:49:11.630Z,14.20
2018-12-02T18:54:09.458Z,14.30
2018-12-02T18:59:07.284Z,14.20
2018-12-02T19:04:04.927Z,14.20
2018-12-02T19:09:02.997Z,14.20
2018-12-02T19:13:59.151Z,14.30
2018-12-02T19:18:54.916Z,14.30
2018-12-02T19:23:51.072Z,14.30
2018-12-02T19:28:44.491Z,14.30
2018-12-02T19:33:38.355Z,14.30
2018-12-02T19:38:31.812Z,14.20
2018-12-02T19:43:25.123Z,14.10
2018-12-02T19:48:18.436Z,14.10
2018-12-02T19:53:11.744Z,14.10
2018-12-02T19:58:08.332Z,14.00
2018-12-02T20:03:01.637Z,14.00
2018-12-02T20:08:00.450Z,13.90
2018-12-02T20:12:53.740Z,13.80
2018-12-02T20:17:47.141Z,13.70
2018-12-02T20:22:40.661Z,13.60
2018-12-02T20:27:33.966Z,13.70
2018-12-02T20:32:27.285Z,13.70
2018-12-02T20:37:20.569Z,13.70
2018-12-02T20:42:13.893Z,13.70
2018-12-02T20:47:07.474Z,13.60
2018-12-02T20:52:00.735Z,13.70
2018-12-02T20:56:54.051Z,13.70
2018-12-02T21:01:48.498Z,13.70
2018-12-02T21:06:43.113Z,13.70
2018-12-02T21:11:40.725Z,13.70
2018-12-02T21:16:34.122Z,13.80
2018-12-02T21:21:27.482Z,13.80
2018-12-02T21:26:20.830Z,13.90
2018-12-02T21:31:14.209Z,13.90
2018-12-02T21:36:07.588Z,13.90
2018-12-02T21:41:00.901Z,14.00
2018-12-02T21:45:54.221Z,14.00
2018-12-02T21:50:53.782Z,14.10
2018-12-02T21:55:47.092Z,14.10
2018-12-02T22:00:49.974Z,14.10
2018-12-02T22:05:43.304Z,14.10
2018-12-02T22:10:36.648Z,14.00
2018-12-02T22:15:30.006Z,14.00
2018-12-02T22:20:23.410Z,13.80
2018-12-02T22:25:19.171Z,13.50
2018-12-02T22:30:21.183Z,13.30
2018-12-02T22:35:15.426Z,13.30
2018-12-02T22:40:13.711Z,13.20
2018-12-02T22:45:11.685Z,13.10
2018-12-02T22:50:08.568Z,13.20
2018-12-02T22:55:01.938Z,13.10
2018-12-02T22:59:55.158Z,13.10
2018-12-02T23:04:48.450Z,13.10
2018-12-02T23:09:41.841Z,13.00
2018-12-02T23:14:35.119Z,13.00
2018-12-02T23:19:30.177Z,13.00
2018-12-02T23:24:26.686Z,13.00
2018-12-02T23:29:20.006Z,12.90
2018-12-02T23:34:13.264Z,13.00
2018-12-02T23:39:07.710Z,13.00
2018-12-02T23:44:01.045Z,12.90
2018-12-02T23:48:54.323Z,12.80
2018-12-02T23:53:47.645Z,12.90
2018-12-02T23:58:40.893Z,13.00
